sensor_id;sensor_type;location;lat;lon;timestamp;pressure;altitude;pressure_sealevel;temperature;humidity
55801;BME280;41730;51.960;20.158;2023-04-02T00:01:42;99235.32;;;6.80;83.93
55801;BME280;41730;51.960;20.158;2023-04-02T00:04:19;99241.16;;;6.85;83.86
55801;BME280;41730;51.960;20.158;2023-04-02T00:07:22;99243.12;;;6.82;83.87
55801;BME280;41730;51.960;20.158;2023-04-02T00:09:58;99247.39;;;6.81;83.95
55801;BME280;41730;51.960;20.158;2023-04-02T00:12:27;99251.75;;;6.88;83.65
55801;BME280;41730;51.960;20.158;2023-04-02T00:14:58;99253.79;;;6.86;83.66
55801;BME280;41730;51.960;20.158;2023-04-02T00:17:27;99261.11;;;6.92;83.50
55801;BME280;41730;51.960;20.158;2023-04-02T00:19:58;99257.55;;;6.83;83.72
55801;BME280;41730;51.960;20.158;2023-04-02T00:22:30;99261.17;;;6.94;83.45
55801;BME280;41730;51.960;20.158;2023-04-02T00:25:06;99263.05;;;6.96;83.26
55801;BME280;41730;51.960;20.158;2023-04-02T00:27:39;99262.95;;;7.02;83.00
55801;BME280;41730;51.960;20.158;2023-04-02T00:30:12;99266.58;;;7.04;82.88
55801;BME280;41730;51.960;20.158;2023-04-02T00:32:41;99268.77;;;6.99;83.04
55801;BME280;41730;51.960;20.158;2023-04-02T00:35:12;99271.00;;;6.93;83.17
55801;BME280;41730;51.960;20.158;2023-04-02T00:37:46;99274.77;;;6.81;83.52
55801;BME280;41730;51.960;20.158;2023-04-02T00:40:20;99274.34;;;6.76;83.91
55801;BME280;41730;51.960;20.158;2023-04-02T00:42:52;99273.50;;;6.75;83.85
55801;BME280;41730;51.960;20.158;2023-04-02T00:45:25;99279.72;;;6.76;83.96
55801;BME280;41730;51.960;20.158;2023-04-02T00:47:59;99282.05;;;6.86;83.49
55801;BME280;41730;51.960;20.158;2023-04-02T00:50:44;99284.35;;;6.81;83.70
55801;BME280;41730;51.960;20.158;2023-04-02T00:53:20;99286.66;;;6.87;83.28
55801;BME280;41730;51.960;20.158;2023-04-02T00:55:50;99287.02;;;6.91;83.08
55801;BME280;41730;51.960;20.158;2023-04-02T00:58:25;99287.48;;;6.81;83.13
55801;BME280;41730;51.960;20.158;2023-04-02T01:00:56;99288.80;;;6.70;83.62
55801;BME280;41730;51.960;20.158;2023-04-02T01:03:35;99290.17;;;6.80;83.33
55801;BME280;41730;51.960;20.158;2023-04-02T01:06:09;99290.50;;;6.76;83.31
55801;BME280;41730;51.960;20.158;2023-04-02T01:08:56;99293.65;;;6.93;83.06
55801;BME280;41730;51.960;20.158;2023-04-02T01:11:38;99294.21;;;7.01;82.46
55801;BME280;41730;51.960;20.158;2023-04-02T01:14:19;99296.63;;;7.01;82.20
55801;BME280;41730;51.960;20.158;2023-04-02T01:16:57;99300.96;;;6.87;82.44
55801;BME280;41730;51.960;20.158;2023-04-02T01:19:53;99300.45;;;6.72;83.03
55801;BME280;41730;51.960;20.158;2023-04-02T01:22:37;99300.65;;;6.74;83.05
55801;BME280;41730;51.960;20.158;2023-04-02T01:25:16;99304.58;;;6.79;82.76
55801;BME280;41730;51.960;20.158;2023-04-02T01:27:50;99303.59;;;6.80;82.45
55801;BME280;41730;51.960;20.158;2023-04-02T01:30:21;99308.51;;;6.69;83.02
55801;BME280;41730;51.960;20.158;2023-04-02T01:32:52;99310.74;;;6.58;83.22
55801;BME280;41730;51.960;20.158;2023-04-02T01:35:23;99313.30;;;6.46;83.72
55801;BME280;41730;51.960;20.158;2023-04-02T01:37:57;99319.91;;;6.48;83.70
55801;BME280;41730;51.960;20.158;2023-04-02T01:40:35;99323.27;;;6.52;83.48
55801;BME280;41730;51.960;20.158;2023-04-02T01:43:13;99318.41;;;6.54;83.16
55801;BME280;41730;51.960;20.158;2023-04-02T01:45:44;99323.73;;;6.57;83.11
55801;BME280;41730;51.960;20.158;2023-04-02T01:48:17;99327.29;;;6.56;82.85
55801;BME280;41730;51.960;20.158;2023-04-02T01:50:48;99326.29;;;6.49;83.05
55801;BME280;41730;51.960;20.158;2023-04-02T01:53:21;99332.73;;;6.51;82.81
55801;BME280;41730;51.960;20.158;2023-04-02T01:55:54;99338.09;;;6.45;82.99
55801;BME280;41730;51.960;20.158;2023-04-02T01:58:25;99338.41;;;6.41;83.13
55801;BME280;41730;51.960;20.158;2023-04-02T02:01:03;99343.02;;;6.29;83.51
55801;BME280;41730;51.960;20.158;2023-04-02T02:03:33;99343.50;;;6.19;83.92
55801;BME280;41730;51.960;20.158;2023-04-02T02:06:03;99346.48;;;6.21;83.91
55801;BME280;41730;51.960;20.158;2023-04-02T02:08:37;99349.27;;;6.25;83.56
55801;BME280;41730;51.960;20.158;2023-04-02T02:11:13;99352.92;;;6.23;83.67
55801;BME280;41730;51.960;20.158;2023-04-02T02:13:46;99352.90;;;6.14;83.85
55801;BME280;41730;51.960;20.158;2023-04-02T02:16:17;99352.70;;;6.06;84.11
55801;BME280;41730;51.960;20.158;2023-04-02T02:18:49;99352.40;;;6.00;84.28
55801;BME280;41730;51.960;20.158;2023-04-02T02:21:27;99352.48;;;6.04;84.19
55801;BME280;41730;51.960;20.158;2023-04-02T02:23:58;99357.15;;;6.07;83.87
55801;BME280;41730;51.960;20.158;2023-04-02T02:26:28;99361.08;;;5.99;84.08
55801;BME280;41730;51.960;20.158;2023-04-02T02:29:01;99365.00;;;5.95;84.27
55801;BME280;41730;51.960;20.158;2023-04-02T02:31:35;99366.21;;;5.93;84.34
55801;BME280;41730;51.960;20.158;2023-04-02T02:34:11;99366.86;;;5.89;84.09
55801;BME280;41730;51.960;20.158;2023-04-02T02:36:48;99369.14;;;5.84;84.53
55801;BME280;41730;51.960;20.158;2023-04-02T02:39:23;99376.05;;;5.82;84.61
55801;BME280;41730;51.960;20.158;2023-04-02T02:41:56;99370.60;;;5.76;84.59
55801;BME280;41730;51.960;20.158;2023-04-02T02:44:30;99379.32;;;5.71;85.02
55801;BME280;41730;51.960;20.158;2023-04-02T02:47:08;99382.63;;;5.78;84.64
55801;BME280;41730;51.960;20.158;2023-04-02T02:49:41;99388.61;;;5.70;84.80
55801;BME280;41730;51.960;20.158;2023-04-02T02:52:16;99386.77;;;5.60;85.22
55801;BME280;41730;51.960;20.158;2023-04-02T02:54:47;99390.02;;;5.68;84.83
55801;BME280;41730;51.960;20.158;2023-04-02T02:57:20;99397.81;;;5.66;84.95
55801;BME280;41730;51.960;20.158;2023-04-02T02:59:51;99391.42;;;5.74;84.59
55801;BME280;41730;51.960;20.158;2023-04-02T03:02:23;99395.70;;;5.73;84.26
55801;BME280;41730;51.960;20.158;2023-04-02T03:04:55;99400.05;;;5.70;84.35
55801;BME280;41730;51.960;20.158;2023-04-02T03:07:26;99399.42;;;5.67;84.59
55801;BME280;41730;51.960;20.158;2023-04-02T03:10:03;99405.19;;;5.58;84.83
55801;BME280;41730;51.960;20.158;2023-04-02T03:12:42;99408.58;;;5.47;85.21
55801;BME280;41730;51.960;20.158;2023-04-02T03:15:18;99409.94;;;5.41;85.64
55801;BME280;41730;51.960;20.158;2023-04-02T03:17:56;99412.14;;;5.36;85.62
55801;BME280;41730;51.960;20.158;2023-04-02T03:20:34;99411.75;;;5.45;85.35
55801;BME280;41730;51.960;20.158;2023-04-02T03:23:14;99414.00;;;5.47;85.10
55801;BME280;41730;51.960;20.158;2023-04-02T03:25:51;99413.26;;;5.59;84.84
55801;BME280;41730;51.960;20.158;2023-04-02T03:28:26;99413.55;;;5.71;84.11
55801;BME280;41730;51.960;20.158;2023-04-02T03:38:32;99424.86;;;5.81;83.02
55801;BME280;41730;51.960;20.158;2023-04-02T03:41:09;99425.58;;;5.75;83.09
55801;BME280;41730;51.960;20.158;2023-04-02T03:43:45;99436.28;;;5.70;83.04
55801;BME280;41730;51.960;20.158;2023-04-02T03:46:24;99434.77;;;5.53;83.55
55801;BME280;41730;51.960;20.158;2023-04-02T03:48:58;99442.73;;;5.53;83.89
55801;BME280;41730;51.960;20.158;2023-04-02T03:51:31;99442.84;;;5.57;83.71
55801;BME280;41730;51.960;20.158;2023-04-02T03:54:01;99448.85;;;5.55;83.73
55801;BME280;41730;51.960;20.158;2023-04-02T03:56:32;99450.52;;;5.61;83.58
55801;BME280;41730;51.960;20.158;2023-04-02T03:59:13;99448.14;;;5.62;83.39
55801;BME280;41730;51.960;20.158;2023-04-02T04:01:51;99449.78;;;5.52;83.52
55801;BME280;41730;51.960;20.158;2023-04-02T04:04:28;99452.33;;;5.44;83.86
55801;BME280;41730;51.960;20.158;2023-04-02T04:07:01;99455.98;;;5.48;83.85
55801;BME280;41730;51.960;20.158;2023-04-02T04:09:34;99465.55;;;5.45;83.86
55801;BME280;41730;51.960;20.158;2023-04-02T04:12:16;99471.21;;;5.42;84.00
55801;BME280;41730;51.960;20.158;2023-04-02T04:14:50;99473.80;;;5.45;83.92
55801;BME280;41730;51.960;20.158;2023-04-02T04:17:29;99478.17;;;5.46;83.82
55801;BME280;41730;51.960;20.158;2023-04-02T04:20:10;99482.16;;;5.37;83.66
55801;BME280;41730;51.960;20.158;2023-04-02T04:22:43;99491.85;;;5.28;84.04
55801;BME280;41730;51.960;20.158;2023-04-02T04:25:20;99492.23;;;5.25;84.12
55801;BME280;41730;51.960;20.158;2023-04-02T04:27:58;99493.24;;;5.25;84.07
55801;BME280;41730;51.960;20.158;2023-04-02T04:30:44;99497.61;;;5.35;84.02
55801;BME280;41730;51.960;20.158;2023-04-02T04:33:31;99505.74;;;5.50;83.15
55801;BME280;41730;51.960;20.158;2023-04-02T04:36:19;99509.59;;;5.38;83.41
55801;BME280;41730;51.960;20.158;2023-04-02T04:39:05;99514.05;;;5.36;83.60
55801;BME280;41730;51.960;20.158;2023-04-02T04:41:38;99511.57;;;5.37;83.30
55801;BME280;41730;51.960;20.158;2023-04-02T04:44:15;99513.95;;;5.37;83.21
55801;BME280;41730;51.960;20.158;2023-04-02T04:46:54;99512.56;;;5.27;83.23
55801;BME280;41730;51.960;20.158;2023-04-02T04:49:29;99512.57;;;5.23;83.56
55801;BME280;41730;51.960;20.158;2023-04-02T04:52:06;99515.33;;;5.21;83.55
55801;BME280;41730;51.960;20.158;2023-04-02T04:54:38;99515.98;;;5.26;83.38
55801;BME280;41730;51.960;20.158;2023-04-02T04:57:20;99518.37;;;5.17;83.48
55801;BME280;41730;51.960;20.158;2023-04-02T04:59:57;99523.30;;;5.11;83.66
55801;BME280;41730;51.960;20.158;2023-04-02T05:02:31;99528.69;;;5.11;83.61
55801;BME280;41730;51.960;20.158;2023-04-02T05:05:13;99535.72;;;5.10;83.57
55801;BME280;41730;51.960;20.158;2023-04-02T05:07:48;99538.38;;;5.04;83.57
55801;BME280;41730;51.960;20.158;2023-04-02T05:10:20;99544.13;;;5.06;83.24
55801;BME280;41730;51.960;20.158;2023-04-02T05:12:55;99549.19;;;5.01;83.42
55801;BME280;41730;51.960;20.158;2023-04-02T05:15:28;99549.66;;;4.92;83.80
55801;BME280;41730;51.960;20.158;2023-04-02T05:18:11;99554.94;;;4.88;84.06
55801;BME280;41730;51.960;20.158;2023-04-02T05:20:47;99562.79;;;4.98;83.78
55801;BME280;41730;51.960;20.158;2023-04-02T05:23:25;99563.84;;;5.00;83.52
55801;BME280;41730;51.960;20.158;2023-04-02T05:26:01;99564.76;;;5.00;83.49
55801;BME280;41730;51.960;20.158;2023-04-02T05:28:39;99567.45;;;4.91;83.75
55801;BME280;41730;51.960;20.158;2023-04-02T05:31:18;99559.54;;;4.95;83.79
55801;BME280;41730;51.960;20.158;2023-04-02T05:33:53;99571.45;;;5.06;83.40
55801;BME280;41730;51.960;20.158;2023-04-02T05:36:26;99574.95;;;4.98;83.64
55801;BME280;41730;51.960;20.158;2023-04-02T05:38:57;99572.80;;;4.94;83.81
55801;BME280;41730;51.960;20.158;2023-04-02T05:41:28;99577.28;;;4.95;83.89
55801;BME280;41730;51.960;20.158;2023-04-02T05:44:05;99584.61;;;4.89;84.03
55801;BME280;41730;51.960;20.158;2023-04-02T05:46:40;99587.37;;;4.94;83.96
55801;BME280;41730;51.960;20.158;2023-04-02T05:49:19;99585.41;;;4.87;83.95
55801;BME280;41730;51.960;20.158;2023-04-02T05:51:55;99591.11;;;4.90;84.02
55801;BME280;41730;51.960;20.158;2023-04-02T05:54:36;99587.98;;;4.93;83.92
55801;BME280;41730;51.960;20.158;2023-04-02T05:57:10;99593.73;;;4.95;83.68
55801;BME280;41730;51.960;20.158;2023-04-02T05:59:43;99593.04;;;4.93;83.67
55801;BME280;41730;51.960;20.158;2023-04-02T06:02:21;99600.69;;;4.77;84.11
55801;BME280;41730;51.960;20.158;2023-04-02T06:04:56;99599.36;;;4.81;84.23
55801;BME280;41730;51.960;20.158;2023-04-02T06:07:30;99602.50;;;4.84;83.88
55801;BME280;41730;51.960;20.158;2023-04-02T06:10:06;99599.74;;;4.81;84.03
55801;BME280;41730;51.960;20.158;2023-04-02T06:12:44;99610.93;;;4.93;83.60
55801;BME280;41730;51.960;20.158;2023-04-02T06:15:18;99619.37;;;4.94;83.64
55801;BME280;41730;51.960;20.158;2023-04-02T06:17:52;99622.63;;;4.97;83.43
55801;BME280;41730;51.960;20.158;2023-04-02T06:20:26;99631.77;;;4.96;83.33
55801;BME280;41730;51.960;20.158;2023-04-02T06:22:57;99634.08;;;4.95;83.29
55801;BME280;41730;51.960;20.158;2023-04-02T06:25:29;99640.50;;;4.97;83.07
55801;BME280;41730;51.960;20.158;2023-04-02T06:28:00;99645.73;;;4.92;83.05
55801;BME280;41730;51.960;20.158;2023-04-02T06:30:34;99649.55;;;4.86;83.13
55801;BME280;41730;51.960;20.158;2023-04-02T06:33:05;99650.59;;;4.74;83.32
55801;BME280;41730;51.960;20.158;2023-04-02T06:35:37;99654.39;;;4.59;84.14
55801;BME280;41730;51.960;20.158;2023-04-02T06:38:13;99660.29;;;4.64;84.18
55801;BME280;41730;51.960;20.158;2023-04-02T06:40:48;99663.48;;;4.76;83.79
55801;BME280;41730;51.960;20.158;2023-04-02T06:43:25;99666.54;;;4.80;83.37
55801;BME280;41730;51.960;20.158;2023-04-02T06:46:04;99668.64;;;4.74;83.21
55801;BME280;41730;51.960;20.158;2023-04-02T06:48:36;99672.62;;;4.72;83.58
55801;BME280;41730;51.960;20.158;2023-04-02T06:51:09;99681.67;;;4.64;83.44
55801;BME280;41730;51.960;20.158;2023-04-02T06:53:41;99688.64;;;4.63;83.74
55801;BME280;41730;51.960;20.158;2023-04-02T06:56:21;99691.07;;;4.63;83.50
55801;BME280;41730;51.960;20.158;2023-04-02T06:58:54;99688.19;;;4.65;83.50
55801;BME280;41730;51.960;20.158;2023-04-02T07:01:25;99693.45;;;4.77;82.99
55801;BME280;41730;51.960;20.158;2023-04-02T07:03:56;99699.11;;;4.81;82.56
55801;BME280;41730;51.960;20.158;2023-04-02T07:06:25;99699.86;;;4.82;82.25
55801;BME280;41730;51.960;20.158;2023-04-02T07:08:54;99704.76;;;4.64;82.31
55801;BME280;41730;51.960;20.158;2023-04-02T07:11:23;99708.35;;;4.51;82.71
55801;BME280;41730;51.960;20.158;2023-04-02T07:13:53;99718.26;;;4.45;82.97
55801;BME280;41730;51.960;20.158;2023-04-02T07:16:24;99721.77;;;4.39;83.29
55801;BME280;41730;51.960;20.158;2023-04-02T07:18:55;99720.80;;;4.39;83.56
55801;BME280;41730;51.960;20.158;2023-04-02T07:21:26;99725.79;;;4.58;82.91
55801;BME280;41730;51.960;20.158;2023-04-02T07:23:55;99728.20;;;4.61;82.19
55801;BME280;41730;51.960;20.158;2023-04-02T07:26:26;99729.98;;;4.55;82.45
55801;BME280;41730;51.960;20.158;2023-04-02T07:28:55;99735.56;;;4.52;82.43
55801;BME280;41730;51.960;20.158;2023-04-02T07:31:25;99743.88;;;4.41;82.97
55801;BME280;41730;51.960;20.158;2023-04-02T07:33:56;99743.61;;;4.32;83.20
55801;BME280;41730;51.960;20.158;2023-04-02T07:36:28;99745.69;;;4.29;83.26
55801;BME280;41730;51.960;20.158;2023-04-02T07:38:57;99748.57;;;4.30;83.45
55801;BME280;41730;51.960;20.158;2023-04-02T07:41:26;99748.80;;;4.32;83.37
55801;BME280;41730;51.960;20.158;2023-04-02T07:43:56;99749.39;;;4.31;83.47
55801;BME280;41730;51.960;20.158;2023-04-02T07:46:25;99755.18;;;4.30;83.43
55801;BME280;41730;51.960;20.158;2023-04-02T07:48:54;99761.94;;;4.30;83.68
55801;BME280;41730;51.960;20.158;2023-04-02T07:51:24;99764.00;;;4.39;83.14
55801;BME280;41730;51.960;20.158;2023-04-02T07:53:54;99767.96;;;4.42;83.26
55801;BME280;41730;51.960;20.158;2023-04-02T07:56:24;99773.80;;;4.51;83.11
55801;BME280;41730;51.960;20.158;2023-04-02T07:58:54;99774.61;;;4.52;82.95
55801;BME280;41730;51.960;20.158;2023-04-02T08:01:24;99784.38;;;4.38;83.47
55801;BME280;41730;51.960;20.158;2023-04-02T08:03:56;99792.21;;;4.29;83.89
55801;BME280;41730;51.960;20.158;2023-04-02T08:06:26;99795.89;;;4.31;84.11
55801;BME280;41730;51.960;20.158;2023-04-02T08:08:57;99802.13;;;4.34;84.04
55801;BME280;41730;51.960;20.158;2023-04-02T08:11:26;99803.23;;;4.33;84.12
55801;BME280;41730;51.960;20.158;2023-04-02T08:13:59;99803.73;;;4.34;84.09
55801;BME280;41730;51.960;20.158;2023-04-02T08:16:43;99807.48;;;4.29;84.52
55801;BME280;41730;51.960;20.158;2023-04-02T08:19:14;99809.63;;;4.42;84.40
55801;BME280;41730;51.960;20.158;2023-04-02T08:21:44;99807.48;;;4.45;84.26
55801;BME280;41730;51.960;20.158;2023-04-02T08:24:13;99805.11;;;4.42;84.41
55801;BME280;41730;51.960;20.158;2023-04-02T08:26:43;99805.82;;;4.56;84.22
55801;BME280;41730;51.960;20.158;2023-04-02T08:29:13;99806.19;;;4.55;84.15
55801;BME280;41730;51.960;20.158;2023-04-02T08:31:44;99811.14;;;4.57;84.38
55801;BME280;41730;51.960;20.158;2023-04-02T08:34:13;99807.08;;;4.66;84.23
55801;BME280;41730;51.960;20.158;2023-04-02T08:36:44;99811.10;;;4.68;84.28
55801;BME280;41730;51.960;20.158;2023-04-02T08:39:13;99813.70;;;4.82;83.92
55801;BME280;41730;51.960;20.158;2023-04-02T08:41:46;99820.11;;;4.92;83.42
55801;BME280;41730;51.960;20.158;2023-04-02T08:44:40;99824.13;;;4.81;83.25
55801;BME280;41730;51.960;20.158;2023-04-02T08:47:13;99822.90;;;4.84;83.21
55801;BME280;41730;51.960;20.158;2023-04-02T08:49:49;99833.38;;;4.97;82.83
55801;BME280;41730;51.960;20.158;2023-04-02T08:52:22;99834.05;;;5.08;82.61
55801;BME280;41730;51.960;20.158;2023-04-02T08:54:53;99840.48;;;5.02;81.90
55801;BME280;41730;51.960;20.158;2023-04-02T08:57:30;99843.92;;;4.89;82.36
55801;BME280;41730;51.960;20.158;2023-04-02T09:00:15;99847.89;;;4.84;82.32
55801;BME280;41730;51.960;20.158;2023-04-02T09:02:55;99844.64;;;4.92;81.76
55801;BME280;41730;51.960;20.158;2023-04-02T09:05:28;99846.16;;;4.90;81.54
55801;BME280;41730;51.960;20.158;2023-04-02T09:08:02;99849.35;;;4.97;81.04
55801;BME280;41730;51.960;20.158;2023-04-02T09:10:41;99854.09;;;4.91;81.08
55801;BME280;41730;51.960;20.158;2023-04-02T09:13:19;99858.45;;;4.93;81.24
55801;BME280;41730;51.960;20.158;2023-04-02T09:16:11;99862.61;;;4.99;81.22
55801;BME280;41730;51.960;20.158;2023-04-02T09:18:43;99870.61;;;5.04;80.68
55801;BME280;41730;51.960;20.158;2023-04-02T09:21:33;99873.19;;;5.07;80.06
55801;BME280;41730;51.960;20.158;2023-04-02T09:24:05;99880.04;;;5.16;79.77
55801;BME280;41730;51.960;20.158;2023-04-02T09:26:34;99887.20;;;5.16;79.22
55801;BME280;41730;51.960;20.158;2023-04-02T09:29:21;99889.31;;;5.18;79.43
55801;BME280;41730;51.960;20.158;2023-04-02T09:32:00;99893.38;;;5.17;79.36
55801;BME280;41730;51.960;20.158;2023-04-02T09:34:31;99900.70;;;5.11;78.73
55801;BME280;41730;51.960;20.158;2023-04-02T09:37:07;99908.33;;;5.04;79.04
55801;BME280;41730;51.960;20.158;2023-04-02T09:39:37;99911.04;;;4.91;79.23
55801;BME280;41730;51.960;20.158;2023-04-02T09:42:25;99910.73;;;4.85;79.57
55801;BME280;41730;51.960;20.158;2023-04-02T09:45:13;99913.70;;;4.79;79.65
55801;BME280;41730;51.960;20.158;2023-04-02T09:47:44;99920.16;;;4.92;79.07
55801;BME280;41730;51.960;20.158;2023-04-02T09:50:30;99921.64;;;4.94;78.03
55801;BME280;41730;51.960;20.158;2023-04-02T09:53:28;99924.40;;;5.00;78.08
55801;BME280;41730;51.960;20.158;2023-04-02T09:56:13;99927.53;;;5.08;77.75
55801;BME280;41730;51.960;20.158;2023-04-02T09:58:43;99936.23;;;5.10;77.36
55801;BME280;41730;51.960;20.158;2023-04-02T10:01:29;99937.91;;;5.06;77.94
55801;BME280;41730;51.960;20.158;2023-04-02T10:03:59;99941.49;;;5.07;77.42
55801;BME280;41730;51.960;20.158;2023-04-02T10:06:29;99945.55;;;5.08;77.48
55801;BME280;41730;51.960;20.158;2023-04-02T10:09:20;99947.11;;;5.06;76.98
55801;BME280;41730;51.960;20.158;2023-04-02T10:11:55;99953.68;;;4.98;77.75
55801;BME280;41730;51.960;20.158;2023-04-02T10:14:29;99954.31;;;5.10;76.99
55801;BME280;41730;51.960;20.158;2023-04-02T10:17:03;99956.17;;;5.16;76.76
55801;BME280;41730;51.960;20.158;2023-04-02T10:19:38;99956.39;;;5.15;76.82
55801;BME280;41730;51.960;20.158;2023-04-02T10:22:14;99954.89;;;5.14;76.63
55801;BME280;41730;51.960;20.158;2023-04-02T10:24:44;99958.17;;;5.23;76.10
55801;BME280;41730;51.960;20.158;2023-04-02T10:27:20;99959.02;;;5.26;75.61
55801;BME280;41730;51.960;20.158;2023-04-02T10:30:14;99960.16;;;5.22;76.21
55801;BME280;41730;51.960;20.158;2023-04-02T10:32:50;99964.79;;;5.36;75.22
55801;BME280;41730;51.960;20.158;2023-04-02T10:35:35;99963.34;;;5.34;75.30
55801;BME280;41730;51.960;20.158;2023-04-02T10:38:24;99962.45;;;5.46;74.96
55801;BME280;41730;51.960;20.158;2023-04-02T10:40:59;99968.06;;;5.42;74.87
55801;BME280;41730;51.960;20.158;2023-04-02T10:43:40;99974.66;;;5.42;74.94
55801;BME280;41730;51.960;20.158;2023-04-02T10:46:19;99980.75;;;5.34;74.64
55801;BME280;41730;51.960;20.158;2023-04-02T10:49:00;99981.08;;;5.45;74.04
55801;BME280;41730;51.960;20.158;2023-04-02T10:51:37;99985.50;;;5.39;73.91
55801;BME280;41730;51.960;20.158;2023-04-02T10:54:19;99991.28;;;5.29;74.43
55801;BME280;41730;51.960;20.158;2023-04-02T10:57:06;99998.95;;;5.24;74.92
55801;BME280;41730;51.960;20.158;2023-04-02T10:59:41;99996.20;;;5.34;74.38
55801;BME280;41730;51.960;20.158;2023-04-02T11:02:27;99999.52;;;5.45;73.96
55801;BME280;41730;51.960;20.158;2023-04-02T11:05:02;100005.34;;;5.46;74.10
55801;BME280;41730;51.960;20.158;2023-04-02T11:07:45;100006.81;;;5.45;74.14
55801;BME280;41730;51.960;20.158;2023-04-02T11:10:19;100013.41;;;5.43;74.10
55801;BME280;41730;51.960;20.158;2023-04-02T11:12:53;100022.42;;;5.40;73.94
55801;BME280;41730;51.960;20.158;2023-04-02T11:15:24;100030.45;;;5.37;74.08
55801;BME280;41730;51.960;20.158;2023-04-02T11:17:54;100036.06;;;5.42;74.04
55801;BME280;41730;51.960;20.158;2023-04-02T11:20:58;100033.65;;;5.39;73.58
55801;BME280;41730;51.960;20.158;2023-04-02T11:23:29;100044.50;;;5.40;73.80
55801;BME280;41730;51.960;20.158;2023-04-02T11:26:32;100040.27;;;5.44;73.70
55801;BME280;41730;51.960;20.158;2023-04-02T11:29:25;100047.78;;;5.41;74.29
55801;BME280;41730;51.960;20.158;2023-04-02T11:37:52;100056.85;;;5.56;73.16
55801;BME280;41730;51.960;20.158;2023-04-02T11:40:46;100062.73;;;5.46;73.36
55801;BME280;41730;51.960;20.158;2023-04-02T11:43:50;100064.99;;;5.32;73.91
55801;BME280;41730;51.960;20.158;2023-04-02T11:46:39;100071.06;;;5.24;74.13
55801;BME280;41730;51.960;20.158;2023-04-02T11:49:34;100074.86;;;5.33;74.04
55801;BME280;41730;51.960;20.158;2023-04-02T11:52:17;100080.27;;;5.35;73.26
55801;BME280;41730;51.960;20.158;2023-04-02T11:54:55;100080.14;;;5.32;73.43
55801;BME280;41730;51.960;20.158;2023-04-02T11:57:42;100080.01;;;5.40;73.47
55801;BME280;41730;51.960;20.158;2023-04-02T12:00:25;100082.72;;;5.57;73.01
55801;BME280;41730;51.960;20.158;2023-04-02T12:03:10;100087.85;;;5.61;73.06
55801;BME280;41730;51.960;20.158;2023-04-02T12:05:50;100093.86;;;5.46;73.55
55801;BME280;41730;51.960;20.158;2023-04-02T12:08:32;100095.80;;;5.51;73.39
55801;BME280;41730;51.960;20.158;2023-04-02T12:11:27;100100.77;;;5.55;73.44
55801;BME280;41730;51.960;20.158;2023-04-02T12:14:05;100101.33;;;5.63;73.10
55801;BME280;41730;51.960;20.158;2023-04-02T12:16:37;100096.57;;;5.50;73.41
55801;BME280;41730;51.960;20.158;2023-04-02T12:19:12;100101.69;;;5.41;73.78
55801;BME280;41730;51.960;20.158;2023-04-02T12:21:45;100111.50;;;5.37;73.96
55801;BME280;41730;51.960;20.158;2023-04-02T12:24:20;100112.38;;;5.31;74.27
55801;BME280;41730;51.960;20.158;2023-04-02T12:27:06;100117.26;;;5.19;74.71
55801;BME280;41730;51.960;20.158;2023-04-02T12:29:42;100119.45;;;5.12;75.06
55801;BME280;41730;51.960;20.158;2023-04-02T12:32:20;100120.32;;;5.09;75.11
55801;BME280;41730;51.960;20.158;2023-04-02T12:34:55;100122.77;;;5.06;75.65
55801;BME280;41730;51.960;20.158;2023-04-02T12:37:29;100127.05;;;5.16;75.62
55801;BME280;41730;51.960;20.158;2023-04-02T12:40:00;100127.21;;;5.19;75.72
55801;BME280;41730;51.960;20.158;2023-04-02T12:42:35;100129.27;;;5.10;75.76
55801;BME280;41730;51.960;20.158;2023-04-02T12:45:20;100137.59;;;4.99;76.15
55801;BME280;41730;51.960;20.158;2023-04-02T12:47:53;100135.14;;;4.91;76.20
55801;BME280;41730;51.960;20.158;2023-04-02T12:50:23;100137.14;;;4.96;76.03
55801;BME280;41730;51.960;20.158;2023-04-02T12:52:52;100141.33;;;4.95;76.29
55801;BME280;41730;51.960;20.158;2023-04-02T12:55:26;100143.31;;;5.00;76.57
55801;BME280;41730;51.960;20.158;2023-04-02T12:57:57;100145.82;;;5.01;76.53
55801;BME280;41730;51.960;20.158;2023-04-02T13:00:37;100146.24;;;4.88;76.87
55801;BME280;41730;51.960;20.158;2023-04-02T13:03:19;100147.63;;;4.77;77.15
55801;BME280;41730;51.960;20.158;2023-04-02T13:05:53;100152.75;;;4.84;77.50
55801;BME280;41730;51.960;20.158;2023-04-02T13:08:26;100157.17;;;4.83;77.74
55801;BME280;41730;51.960;20.158;2023-04-02T13:10:58;100154.55;;;4.80;77.82
55801;BME280;41730;51.960;20.158;2023-04-02T13:13:32;100155.80;;;4.80;77.63
55801;BME280;41730;51.960;20.158;2023-04-02T13:16:05;100158.09;;;4.79;77.94
55801;BME280;41730;51.960;20.158;2023-04-02T13:18:36;100162.69;;;4.75;78.08
55801;BME280;41730;51.960;20.158;2023-04-02T13:21:21;100171.92;;;4.75;78.07
55801;BME280;41730;51.960;20.158;2023-04-02T13:23:56;100172.73;;;4.75;77.97
55801;BME280;41730;51.960;20.158;2023-04-02T13:26:27;100169.92;;;4.73;78.05
55801;BME280;41730;51.960;20.158;2023-04-02T13:28:59;100178.25;;;4.73;78.12
55801;BME280;41730;51.960;20.158;2023-04-02T13:31:29;100179.34;;;4.69;78.40
55801;BME280;41730;51.960;20.158;2023-04-02T13:34:00;100180.10;;;4.65;78.54
55801;BME280;41730;51.960;20.158;2023-04-02T13:36:30;100191.42;;;4.65;78.24
55801;BME280;41730;51.960;20.158;2023-04-02T13:39:01;100192.81;;;4.59;78.60
55801;BME280;41730;51.960;20.158;2023-04-02T13:41:32;100198.67;;;4.57;78.62
55801;BME280;41730;51.960;20.158;2023-04-02T13:44:03;100196.64;;;4.46;79.04
55801;BME280;41730;51.960;20.158;2023-04-02T13:46:34;100199.78;;;4.40;79.37
55801;BME280;41730;51.960;20.158;2023-04-02T13:49:04;100208.01;;;4.39;79.35
55801;BME280;41730;51.960;20.158;2023-04-02T13:51:40;100211.99;;;4.39;79.12
55801;BME280;41730;51.960;20.158;2023-04-02T13:54:16;100212.39;;;4.35;78.62
55801;BME280;41730;51.960;20.158;2023-04-02T13:57:04;100210.63;;;4.26;78.89